createdAt,value
2024-05-09T00:02:31.814Z,1019
2024-05-09T00:05:31.810Z,1019
2024-05-09T00:08:31.796Z,1019.1
2024-05-09T00:11:31.770Z,1019
2024-05-09T00:14:31.816Z,1019.1
2024-05-09T00:17:31.943Z,1019
2024-05-09T00:20:36.553Z,1019
2024-05-09T00:23:31.827Z,1019
2024-05-09T00:26:31.782Z,1019
2024-05-09T00:29:31.815Z,1019.1
2024-05-09T00:32:31.905Z,1019
2024-05-09T00:35:31.832Z,1019.1
2024-05-09T00:38:31.881Z,1019.1
2024-05-09T00:41:31.817Z,1019.1
2024-05-09T00:44:31.814Z,1019
2024-05-09T00:47:31.849Z,1019.1
2024-05-09T00:50:35.429Z,1019.1
2024-05-09T00:53:31.843Z,1019
2024-05-09T00:56:31.831Z,1019.1
2024-05-09T00:59:31.902Z,1019.1
2024-05-09T01:02:31.829Z,1019
2024-05-09T01:05:31.809Z,1019
2024-05-09T01:08:31.885Z,1019
2024-05-09T01:11:31.859Z,1019
2024-05-09T01:14:31.818Z,1019
2024-05-09T01:17:31.955Z,1019
2024-05-09T01:20:37.353Z,1019
2024-05-09T01:23:31.902Z,1019
2024-05-09T01:26:31.930Z,1018.9
2024-05-09T01:29:31.871Z,1018.9
2024-05-09T01:32:31.910Z,1018.9
2024-05-09T01:35:31.938Z,1018.9
2024-05-09T01:38:31.955Z,1018.9
2024-05-09T01:41:31.883Z,1019
2024-05-09T01:44:31.890Z,1018.9
2024-05-09T01:47:31.942Z,1018.9
2024-05-09T01:53:31.889Z,1019
2024-05-09T01:56:31.914Z,1019
2024-05-09T01:59:31.946Z,1019
2024-05-09T02:02:31.921Z,1019.1
2024-05-09T02:05:31.923Z,1019
2024-05-09T02:08:32.064Z,1019
2024-05-09T02:11:31.984Z,1018.9
2024-05-09T02:14:31.905Z,1019
2024-05-09T02:17:31.992Z,1019
2024-05-09T02:20:35.367Z,1019
2024-05-09T02:23:32.012Z,1019.1
2024-05-09T02:26:31.950Z,1019.1
2024-05-09T02:29:31.928Z,1019.1
2024-05-09T02:32:32.016Z,1019
2024-05-09T02:35:31.985Z,1019
2024-05-09T02:38:32.026Z,1019
2024-05-09T02:41:31.942Z,1019
2024-05-09T02:44:31.982Z,1019
2024-05-09T02:47:31.980Z,1018.9
2024-05-09T02:50:36.604Z,1018.9
2024-05-09T02:53:32.056Z,1018.9
2024-05-09T02:56:32.002Z,1018.9
2024-05-09T02:59:32.041Z,1019
2024-05-09T03:02:31.999Z,1019
2024-05-09T03:05:32.047Z,1019
2024-05-09T03:08:32.047Z,1019
2024-05-09T03:11:32.010Z,1019
2024-05-09T03:14:32.027Z,1019
2024-05-09T03:17:32.137Z,1019
2024-05-09T03:20:33.805Z,1019
2024-05-09T03:23:32.015Z,1019
2024-05-09T03:26:32.009Z,1019
2024-05-09T03:29:32.031Z,1019
2024-05-09T03:32:32.068Z,1019.1
2024-05-09T03:35:32.050Z,1019
2024-05-09T03:38:32.155Z,1019
2024-05-09T03:41:32.081Z,1019
2024-05-09T03:44:32.080Z,1019
2024-05-09T03:47:32.110Z,1019
2024-05-09T03:50:35.197Z,1019
2024-05-09T03:53:32.155Z,1019
2024-05-09T03:56:32.084Z,1019
2024-05-09T03:59:32.136Z,1019
2024-05-09T04:02:32.175Z,1019
2024-05-09T04:05:32.191Z,1019
2024-05-09T04:08:32.093Z,1019
2024-05-09T04:11:32.118Z,1019
2024-05-09T04:14:32.103Z,1018.9
2024-05-09T04:17:32.216Z,1019
2024-05-09T04:20:36.128Z,1019
2024-05-09T04:23:32.141Z,1019
2024-05-09T04:26:32.148Z,1019.1
2024-05-09T04:29:32.228Z,1019.1
2024-05-09T04:32:32.139Z,1019
2024-05-09T04:35:32.226Z,1019
2024-05-09T04:38:32.185Z,1019.2
2024-05-09T04:41:32.175Z,1019.2
2024-05-09T04:44:32.150Z,1019.1
2024-05-09T04:47:32.236Z,1019.1
2024-05-09T04:50:35.662Z,1019.1
2024-05-09T04:53:32.164Z,1019.1
2024-05-09T04:56:32.174Z,1019.1
2024-05-09T04:59:32.170Z,1019.2
2024-05-09T05:02:32.162Z,1019.2
2024-05-09T05:05:32.179Z,1019.3
2024-05-09T05:08:32.220Z,1019.2
2024-05-09T05:11:32.250Z,1019.2
2024-05-09T05:14:32.196Z,1019.2
2024-05-09T05:17:32.336Z,1019.2
2024-05-09T05:20:33.383Z,1019.3
2024-05-09T05:23:32.213Z,1019.3
2024-05-09T05:26:32.276Z,1019.2
2024-05-09T05:29:32.286Z,1019.2
2024-05-09T05:32:32.294Z,1019.2
2024-05-09T05:35:32.255Z,1019.3
2024-05-09T05:38:32.271Z,1019.3
2024-05-09T05:41:32.243Z,1019.3
2024-05-09T05:44:32.254Z,1019.3
2024-05-09T05:47:32.327Z,1019.3
2024-05-09T05:50:35.038Z,1019.3
2024-05-09T05:53:32.266Z,1019.3
2024-05-09T05:56:32.353Z,1019.3
2024-05-09T05:59:32.292Z,1019.3
2024-05-09T06:02:32.417Z,1019.3
2024-05-09T06:05:32.799Z,1019.3
2024-05-09T06:08:32.264Z,1019.3
2024-05-09T06:11:32.355Z,1019.3
2024-05-09T06:14:32.383Z,1019.2
2024-05-09T06:17:32.353Z,1019.2
2024-05-09T06:20:35.143Z,1019.2
2024-05-09T06:23:32.384Z,1019.2
2024-05-09T06:26:32.343Z,1019.3
2024-05-09T06:29:32.289Z,1019.3
2024-05-09T06:32:32.369Z,1019.3
2024-05-09T06:35:32.491Z,1019.2
2024-05-09T06:38:32.294Z,1019.3
2024-05-09T06:41:32.332Z,1019.2
2024-05-09T06:44:32.357Z,1019.2
2024-05-09T06:47:32.389Z,1019.3
2024-05-09T06:50:36.977Z,1019.3
2024-05-09T06:53:32.402Z,1019.3
2024-05-09T06:56:32.365Z,1019.3
2024-05-09T06:59:32.400Z,1019.3
2024-05-09T07:02:32.430Z,1019.3
2024-05-09T07:05:32.368Z,1019.3
2024-05-09T07:08:32.450Z,1019.3
2024-05-09T07:11:32.444Z,1019.1
2024-05-09T07:14:33.964Z,1019.1
2024-05-09T07:17:32.499Z,1019.2
2024-05-09T07:20:34.364Z,1019.2
2024-05-09T07:23:32.427Z,1019.3
2024-05-09T07:26:32.416Z,1019.2
2024-05-09T07:29:33.451Z,1019.2
2024-05-09T07:32:32.472Z,1019.2
2024-05-09T07:35:32.576Z,1019.2
2024-05-09T07:38:32.566Z,1019.2
2024-05-09T07:41:32.528Z,1019.2
2024-05-09T07:44:32.497Z,1019.2
2024-05-09T07:48:13.934Z,1019.1
2024-05-09T07:51:31.730Z,1019.2
2024-05-09T07:53:37.532Z,1019.2
2024-05-09T07:56:32.621Z,1019.2
2024-05-09T07:59:35.154Z,1019.1
2024-05-09T08:02:32.532Z,1019.1
2024-05-09T08:05:32.588Z,1019
2024-05-09T08:08:32.427Z,1019
2024-05-09T08:11:32.501Z,1019
2024-05-09T08:14:32.433Z,1019
2024-05-09T08:17:32.558Z,1018.9
2024-05-09T08:20:34.956Z,1018.9
2024-05-09T08:23:32.446Z,1018.9
2024-05-09T08:26:32.441Z,1018.9
2024-05-09T08:29:32.455Z,1018.9
2024-05-09T08:32:32.516Z,1019
2024-05-09T08:35:32.496Z,1018.9
2024-05-09T08:38:32.449Z,1018.9
2024-05-09T08:41:32.448Z,1018.9
2024-05-09T08:44:32.457Z,1018.9
2024-05-09T08:47:32.541Z,1019
2024-05-09T08:50:37.666Z,1018.9
2024-05-09T08:53:32.457Z,1019
2024-05-09T08:56:32.459Z,1019
2024-05-09T08:59:32.456Z,1018.9
2024-05-09T09:02:32.514Z,1018.8
2024-05-09T09:05:32.574Z,1018.8
2024-05-09T09:08:32.468Z,1018.8
2024-05-09T09:11:32.491Z,1018.8
2024-05-09T09:14:32.475Z,1018.8
2024-05-09T09:17:32.520Z,1018.7
2024-05-09T09:20:35.595Z,1018.7
2024-05-09T09:23:32.478Z,1018.7
2024-05-09T09:26:32.477Z,1018.8
2024-05-09T09:29:32.476Z,1018.8
2024-05-09T09:32:32.543Z,1018.8
2024-05-09T09:35:32.477Z,1018.8
2024-05-09T09:38:32.546Z,1018.8
2024-05-09T09:41:32.481Z,1018.8
2024-05-09T09:44:33.036Z,1018.8
2024-05-09T09:47:32.559Z,1018.8
2024-05-09T09:50:34.164Z,1018.7
2024-05-09T09:53:32.490Z,1018.8
2024-05-09T09:56:32.503Z,1018.7
2024-05-09T09:59:32.500Z,1018.7
2024-05-09T10:02:32.610Z,1018.6
2024-05-09T10:05:32.560Z,1018.6
2024-05-09T10:08:32.495Z,1018.6
2024-05-09T10:11:34.952Z,1018.6
2024-05-09T10:14:32.510Z,1018.6
2024-05-09T10:17:32.579Z,1018.5
2024-05-09T10:20:33.011Z,1018.5
2024-05-09T10:23:32.669Z,1018.5
2024-05-09T10:26:32.515Z,1018.5
2024-05-09T10:29:32.528Z,1018.4
2024-05-09T10:32:32.621Z,1018.5
2024-05-09T10:35:32.520Z,1018.4
2024-05-09T10:38:32.507Z,1018.4
2024-05-09T10:41:32.508Z,1018.4
2024-05-09T10:44:32.538Z,1018.4
2024-05-09T10:47:32.694Z,1018.3
2024-05-09T10:50:34.121Z,1018.2
2024-05-09T10:53:32.574Z,1018.3
2024-05-09T10:56:32.539Z,1018.1
2024-05-09T10:59:32.527Z,1018.2
2024-05-09T11:02:32.648Z,1018.2
2024-05-09T11:05:32.616Z,1018.2
2024-05-09T11:08:32.852Z,1018.2
2024-05-09T11:11:32.579Z,1018.1
2024-05-09T11:14:32.545Z,1018.1
2024-05-09T11:17:32.584Z,1018.1
2024-05-09T11:23:32.527Z,1018
2024-05-09T11:26:32.532Z,1017.9
2024-05-09T11:29:32.532Z,1017.9
2024-05-09T11:32:32.648Z,1017.8
2024-05-09T11:35:32.529Z,1017.8
2024-05-09T11:38:32.551Z,1017.8
2024-05-09T11:41:32.553Z,1017.8
2024-05-09T11:44:32.540Z,1017.7
2024-05-09T11:47:32.566Z,1017.7
2024-05-09T11:50:34.984Z,1017.7
2024-05-09T11:53:32.549Z,1017.6
2024-05-09T11:56:32.534Z,1017.6
2024-05-09T11:59:32.563Z,1017.5
2024-05-09T12:02:32.600Z,1017.5
2024-05-09T12:05:32.932Z,1017.5
2024-05-09T12:08:32.559Z,1017.5
2024-05-09T12:11:32.584Z,1017.5
2024-05-09T12:14:32.562Z,1017.5
2024-05-09T12:17:32.596Z,1017.5
2024-05-09T12:20:35.391Z,1017.5
2024-05-09T12:23:32.558Z,1017.4
2024-05-09T12:26:32.561Z,1017.4
2024-05-09T12:29:33.830Z,1017.5
2024-05-09T12:32:32.654Z,1017.4
2024-05-09T12:35:32.582Z,1017.3
2024-05-09T12:38:32.583Z,1017.3
2024-05-09T12:41:32.572Z,1017.2
2024-05-09T12:44:32.584Z,1017.3
2024-05-09T12:47:32.684Z,1017.3
2024-05-09T12:50:33.783Z,1017.2
2024-05-09T12:53:32.578Z,1017.2
2024-05-09T12:56:32.571Z,1017.2
2024-05-09T12:59:32.604Z,1017.1
2024-05-09T13:02:32.710Z,1017
2024-05-09T13:05:32.691Z,1017
2024-05-09T13:08:32.594Z,1017
2024-05-09T13:11:32.609Z,1016.8
2024-05-09T13:14:32.599Z,1016.9
2024-05-09T13:17:32.683Z,1016.9
2024-05-09T13:20:33.852Z,1016.9
2024-05-09T13:23:32.582Z,1016.8
2024-05-09T13:26:32.607Z,1016.8
2024-05-09T13:29:32.606Z,1016.8
2024-05-09T13:32:32.676Z,1016.7
2024-05-09T13:35:32.607Z,1016.7
2024-05-09T13:38:32.594Z,1016.7
2024-05-09T13:41:32.608Z,1016.7
2024-05-09T13:44:32.601Z,1016.6
2024-05-09T13:47:32.656Z,1016.5
2024-05-09T13:50:34.419Z,1016.5
2024-05-09T13:53:32.628Z,1016.5
2024-05-09T13:56:32.612Z,1016.4
2024-05-09T13:59:32.625Z,1016.4
2024-05-09T14:02:32.690Z,1016.4
2024-05-09T14:05:32.740Z,1016.3
2024-05-09T14:08:32.628Z,1016.3
2024-05-09T14:11:32.758Z,1016.3
2024-05-09T14:14:32.644Z,1016.2
2024-05-09T14:17:32.678Z,1016.1
2024-05-09T14:20:32.856Z,1016.1
2024-05-09T14:23:32.660Z,1016.1
2024-05-09T14:26:32.622Z,1016.1
2024-05-09T14:29:32.644Z,1016.1
2024-05-09T14:32:32.724Z,1016.1
2024-05-09T14:35:32.640Z,1016.1
2024-05-09T14:38:32.636Z,1016
2024-05-09T14:41:32.650Z,1015.9
2024-05-09T14:44:32.661Z,1016
2024-05-09T14:47:32.757Z,1016
2024-05-09T14:50:35.379Z,1015.9
2024-05-09T14:53:32.647Z,1015.9
2024-05-09T14:56:32.654Z,1015.7
2024-05-09T14:59:32.653Z,1015.8
2024-05-09T15:02:32.755Z,1015.8
2024-05-09T15:05:32.705Z,1015.8
2024-05-09T15:08:32.686Z,1015.8
2024-05-09T15:11:32.691Z,1015.6
2024-05-09T15:14:32.680Z,1015.7
2024-05-09T15:17:32.736Z,1015.7
2024-05-09T15:20:35.156Z,1015.7
2024-05-09T15:23:32.696Z,1015.7
2024-05-09T15:26:32.707Z,1015.6
2024-05-09T15:29:32.696Z,1015.6
2024-05-09T15:32:32.873Z,1015.6
2024-05-09T15:35:32.684Z,1015.6
2024-05-09T15:38:32.705Z,1015.5
2024-05-09T15:41:32.718Z,1015.5
2024-05-09T15:44:32.699Z,1015.5
2024-05-09T15:47:32.798Z,1015.4
2024-05-09T15:50:36.547Z,1015.4
2024-05-09T15:53:32.715Z,1015.3
2024-05-09T15:56:32.712Z,1015.4
2024-05-09T15:59:32.715Z,1015.4
2024-05-09T16:02:32.877Z,1015.4
2024-05-09T16:05:32.834Z,1015.3
2024-05-09T16:08:32.708Z,1015.3
2024-05-09T16:11:32.827Z,1015.3
2024-05-09T16:14:32.730Z,1015.3
2024-05-09T16:17:32.764Z,1015.3
2024-05-09T16:20:37.289Z,1015.3
2024-05-09T16:23:32.736Z,1015.1
2024-05-09T16:26:32.723Z,1015.2
2024-05-09T16:29:32.744Z,1015.2
2024-05-09T16:32:32.953Z,1015.2
2024-05-09T16:35:32.741Z,1015.3
2024-05-09T16:38:32.737Z,1015.3
2024-05-09T16:41:32.738Z,1015.2
2024-05-09T16:44:35.153Z,1015.2
2024-05-09T16:47:32.860Z,1015.3
2024-05-09T16:50:33.765Z,1015.2
2024-05-09T16:53:32.755Z,1015.2
2024-05-09T16:56:32.768Z,1015.2
2024-05-09T16:59:32.770Z,1015.2
2024-05-09T17:02:32.856Z,1015.2
2024-05-09T17:05:33.036Z,1015.1
2024-05-09T17:08:32.782Z,1015.2
2024-05-09T17:11:32.804Z,1015.2
2024-05-09T17:14:32.773Z,1015.2
2024-05-09T17:17:32.852Z,1015.2
2024-05-09T17:20:34.553Z,1015.1
2024-05-09T17:23:34.761Z,1015.1
2024-05-09T17:26:32.782Z,1015.1
2024-05-09T17:29:32.804Z,1015.1
2024-05-09T17:32:32.966Z,1015.1
2024-05-09T17:35:32.846Z,1015.1
2024-05-09T17:38:32.870Z,1015
2024-05-09T17:41:32.873Z,1015.1
2024-05-09T17:44:32.816Z,1015
2024-05-09T17:47:32.945Z,1015
2024-05-09T17:50:34.606Z,1015
2024-05-09T17:53:32.831Z,1015
2024-05-09T17:56:32.808Z,1015
2024-05-09T17:59:32.824Z,1015
2024-05-09T18:02:32.884Z,1014.9
2024-05-09T18:05:33.112Z,1015.1
2024-05-09T18:08:32.829Z,1015.1
2024-05-09T18:11:32.978Z,1015.1
2024-05-09T18:14:32.842Z,1015.1
2024-05-09T18:17:32.915Z,1015.1
2024-05-09T18:20:37.709Z,1015.1
2024-05-09T18:23:32.846Z,1015.2
2024-05-09T18:26:32.852Z,1015.2
2024-05-09T18:29:32.865Z,1015.1
2024-05-09T18:32:32.872Z,1015.1
2024-05-09T18:35:32.857Z,1015.1
2024-05-09T18:38:32.865Z,1015.1
2024-05-09T18:41:32.871Z,1015.2
2024-05-09T18:44:32.883Z,1015.1
2024-05-09T18:47:32.951Z,1015.2
2024-05-09T18:50:35.762Z,1015.2
2024-05-09T18:53:32.892Z,1015.3
2024-05-09T18:56:32.888Z,1015.3
2024-05-09T18:59:32.877Z,1015.3
2024-05-09T19:02:32.928Z,1015.2
2024-05-09T19:05:33.086Z,1015.3
2024-05-09T19:08:32.878Z,1015.3
2024-05-09T19:11:32.912Z,1015.3
2024-05-09T19:14:32.881Z,1015.3
2024-05-09T19:17:32.955Z,1015.3
2024-05-09T19:20:34.328Z,1015.3
2024-05-09T19:23:37.846Z,1015.4
2024-05-09T19:26:32.892Z,1015.4
2024-05-09T19:29:32.914Z,1015.4
2024-05-09T19:32:32.959Z,1015.5
2024-05-09T19:35:33.131Z,1015.4
2024-05-09T19:38:32.909Z,1015.4
2024-05-09T19:41:32.929Z,1015.5
2024-05-09T19:44:32.937Z,1015.4
2024-05-09T19:47:32.944Z,1015.5
2024-05-09T19:50:38.002Z,1015.6
2024-05-09T19:53:32.941Z,1015.6
2024-05-09T19:56:32.945Z,1015.6
2024-05-09T19:59:32.951Z,1015.7
2024-05-09T20:02:33.105Z,1015.7
2024-05-09T20:05:33.487Z,1015.7
2024-05-09T20:08:32.949Z,1015.7
2024-05-09T20:11:33.278Z,1015.7
2024-05-09T20:14:32.960Z,1015.6
2024-05-09T20:17:33.127Z,1015.7
2024-05-09T20:20:36.284Z,1015.7
2024-05-09T20:23:32.974Z,1015.6
2024-05-09T20:26:32.974Z,1015.8
2024-05-09T20:29:32.979Z,1015.8
2024-05-09T20:32:33.119Z,1015.7
2024-05-09T20:35:33.318Z,1015.7
2024-05-09T20:38:33.017Z,1015.8
2024-05-09T20:41:33.704Z,1015.8
2024-05-09T20:44:33.002Z,1015.7
2024-05-09T20:47:33.028Z,1015.7
2024-05-09T20:50:37.128Z,1015.7
2024-05-09T20:53:33.023Z,1015.6
2024-05-09T20:56:33.035Z,1015.6
2024-05-09T20:59:33.039Z,1015.7
2024-05-09T21:02:33.208Z,1015.7
2024-05-09T21:05:33.228Z,1015.6
2024-05-09T21:08:33.041Z,1015.7
2024-05-09T21:11:33.080Z,1015.7
2024-05-09T21:14:33.063Z,1015.7
2024-05-09T21:17:33.129Z,1015.7
2024-05-09T21:20:33.403Z,1015.8
2024-05-09T21:23:33.084Z,1015.7
2024-05-09T21:26:33.080Z,1015.8
2024-05-09T21:29:33.091Z,1015.8
2024-05-09T21:32:33.138Z,1015.8
2024-05-09T21:35:33.107Z,1015.8
2024-05-09T21:38:33.136Z,1015.7
2024-05-09T21:41:33.138Z,1015.8
2024-05-09T21:44:33.141Z,1015.8
2024-05-09T21:47:33.231Z,1015.8
2024-05-09T21:50:38.414Z,1015.8
2024-05-09T21:53:34.444Z,1015.8
2024-05-09T21:56:33.167Z,1015.8
2024-05-09T21:59:33.187Z,1015.8
2024-05-09T22:02:33.233Z,1015.7
2024-05-09T22:05:33.423Z,1015.7
2024-05-09T22:08:33.219Z,1015.7
2024-05-09T22:11:33.275Z,1015.7
2024-05-09T22:14:33.228Z,1015.7
2024-05-09T22:17:33.321Z,1015.7
2024-05-09T22:20:35.953Z,1015.8
2024-05-09T22:23:33.248Z,1015.9
2024-05-09T22:26:33.249Z,1015.8
2024-05-09T22:29:33.259Z,1015.9
2024-05-09T22:32:33.309Z,1015.9
2024-05-09T22:35:33.337Z,1015.9
2024-05-09T22:38:33.269Z,1015.8
2024-05-09T22:41:33.272Z,1015.9
2024-05-09T22:44:33.271Z,1015.9
2024-05-09T22:47:33.371Z,1015.7
2024-05-09T22:50:33.712Z,1015.7
2024-05-09T22:53:33.306Z,1015.8
2024-05-09T22:56:33.292Z,1015.8
2024-05-09T22:59:33.303Z,1015.8
2024-05-09T23:02:33.297Z,1015.8
2024-05-09T23:05:33.386Z,1015.8
2024-05-09T23:08:33.320Z,1015.8
2024-05-09T23:11:33.357Z,1015.8
2024-05-09T23:14:33.312Z,1015.7
2024-05-09T23:17:33.441Z,1015.7
2024-05-09T23:20:36.746Z,1015.7
2024-05-09T23:23:33.314Z,1015.6
2024-05-09T23:26:33.305Z,1015.6
2024-05-09T23:29:33.307Z,1015.6
2024-05-09T23:32:33.336Z,1015.6
2024-05-09T23:35:33.312Z,1015.6
2024-05-09T23:38:33.329Z,1015.6
2024-05-09T23:41:33.304Z,1015.6
2024-05-09T23:44:33.329Z,1015.6
2024-05-09T23:47:33.350Z,1015.7
2024-05-09T23:50:34.987Z,1015.5
2024-05-09T23:53:33.334Z,1015.5
2024-05-09T23:56:33.337Z,1015.5
2024-05-09T23:59:33.375Z,1015.5
